Time;durP1;ratioP1;P1;durP2;ratioP2;P2;SDS_P1;SDS_P2;PMS_P1;PMS_P2;Temp;Humidity;BMP_temperature;BMP_pressure;BME280_temperature;BME280_humidity;BME280_pressure;Samples;Min_cycle;Max_cycle;Signal;HPM_P1;HPM_P2
2022/11/30 00:01:41;;;;;;;29.02;22.15;;;10.00;99.90;;;10.15;91.89;102156.44;5116636;28;20063;-76
2022/11/30 00:04:10;;;;;;;29.67;21.80;;;10.10;99.90;;;10.35;92.32;102181.50;5098687;28;20509;-75
2022/11/30 00:06:42;;;;;;;28.83;21.85;;;10.10;99.90;;;10.43;92.37;102205.44;5116531;28;20667;-75
2022/11/30 00:09:10;;;;;;;30.60;21.45;;;10.20;99.90;;;10.24;92.36;102135.44;5116493;28;20040;-76
2022/11/30 00:11:39;;;;;;;30.90;21.67;;;10.30;99.90;;;10.56;91.82;102194.19;5116244;28;20491;-76
2022/11/30 00:14:07;;;;;;;27.90;21.20;;;10.30;99.90;;;10.57;91.73;102186.28;5098307;28;20407;-76
2022/11/30 00:16:36;;;;;;;25.52;21.40;;;10.30;99.90;;;10.38;91.67;102164.75;5098018;28;20480;-75
2022/11/30 00:19:06;;;;;;;29.25;20.77;;;10.30;99.90;;;10.56;91.56;102184.50;5116249;28;20122;-76
2022/11/30 00:21:34;;;;;;;25.93;21.30;;;10.30;99.90;;;10.54;91.41;102185.34;5116183;28;20043;-76
2022/11/30 00:24:02;;;;;;;26.15;21.40;;;10.30;99.90;;;10.46;91.53;102200.19;5098249;28;20040;-75
2022/11/30 00:26:31;;;;;;;23.05;19.13;;;10.30;99.90;;;10.50;91.61;102192.34;5116086;28;20036;-75
2022/11/30 00:28:59;;;;;;;27.98;20.67;;;10.30;99.90;;;10.47;91.73;102172.88;5116309;28;20469;-75
2022/11/30 00:31:28;;;;;;;29.38;21.77;;;10.30;99.90;;;10.60;91.51;102170.47;5115970;28;20050;-76
2022/11/30 00:33:56;;;;;;;29.63;21.83;;;10.40;99.90;;;10.49;91.38;102153.50;5116042;28;20131;-75
2022/11/30 00:36:26;;;;;;;28.23;21.45;;;10.40;99.90;;;10.79;91.27;102192.81;5115965;28;20040;-75
2022/11/30 00:38:56;;;;;;;30.52;21.52;;;10.50;99.90;;;10.74;91.03;102192.72;5115857;28;20104;-75
2022/11/30 00:41:24;;;;;;;28.38;21.27;;;10.50;99.90;;;10.74;91.41;102192.72;5115878;28;20075;-76
2022/11/30 00:43:52;;;;;;;28.88;21.20;;;10.50;99.90;;;10.58;91.20;102160.72;5097862;28;20058;-76
2022/11/30 00:46:21;;;;;;;28.65;20.95;;;10.50;99.90;;;10.81;91.38;102188.44;5115716;28;20074;-76
2022/11/30 00:48:49;;;;;;;29.58;20.98;;;10.50;99.90;;;10.88;91.44;102191.19;5097719;28;20496;-76
2022/11/30 00:51:20;;;;;;;29.00;20.20;;;10.60;99.90;;;10.54;91.31;102125.38;5097613;28;20039;-76
2022/11/30 00:53:50;;;;;;;29.35;20.60;;;10.60;99.90;;;10.68;91.25;102142.34;5116202;28;20078;-76
2022/11/30 00:56:18;;;;;;;25.80;20.60;;;10.70;99.90;;;10.51;91.14;102109.44;5115846;28;20043;-76
2022/11/30 00:58:47;;;;;;;23.25;19.17;;;10.70;99.90;;;10.58;90.41;102153.66;5097613;28;20481;-76
2022/11/30 01:01:15;;;;;;;24.70;20.40;;;10.60;99.90;;;10.58;90.07;102158.06;5115035;28;20044;-76
2022/11/30 01:03:44;;;;;;;27.50;20.50;;;10.50;99.90;;;10.45;90.27;102187.84;5115508;28;20485;-76
2022/11/30 01:06:13;;;;;;;28.40;19.45;;;10.30;99.90;;;10.29;90.23;102183.13;5115445;28;20039;-76
2022/11/30 01:08:41;;;;;;;27.50;19.80;;;10.10;99.90;;;9.84;90.98;102178.75;5115962;28;20038;-76
2022/11/30 01:11:15;;;;;;;26.63;19.83;;;9.60;99.90;;;10.03;91.77;102179.97;5115324;28;20078;-76
2022/11/30 01:13:44;;;;;;;26.10;20.02;;;9.70;99.90;;;10.11;92.32;102185.44;5097242;28;20400;-76
2022/11/30 01:16:17;;;;;;;26.27;20.85;;;9.80;99.90;;;10.11;92.42;102196.00;5115217;28;20126;-76
2022/11/30 01:18:47;;;;;;;27.42;21.38;;;9.80;99.90;;;9.87;93.05;102122.41;5097227;28;20074;-76
2022/11/30 01:21:18;;;;;;;24.67;19.17;;;9.90;99.90;;;10.38;92.87;102194.75;5115475;28;20089;-76
2022/11/30 01:23:47;;;;;;;24.80;20.55;;;10.10;99.90;;;10.47;92.36;102184.31;5115388;28;20036;-76
2022/11/30 01:26:19;;;;;;;27.75;20.15;;;10.20;99.90;;;7.77;91.94;101719.00;5115345;28;20527;-76
2022/11/30 01:28:51;;;;;;;29.33;21.60;;;10.20;99.90;;;10.39;92.20;102183.34;5115553;28;20036;-76
2022/11/30 01:31:23;;;;;;;28.23;21.02;;;10.20;99.90;;;10.13;92.30;102150.22;5114959;28;20044;-76
2022/11/30 01:33:54;;;;;;;21.90;19.20;;;10.20;99.90;;;10.44;92.21;102188.69;5114931;28;20118;-77
2022/11/30 01:36:24;;;;;;;;;;;10.20;99.90;;;9.69;91.76;102049.00;5115797;28;20078;-77
2022/11/30 01:38:55;;;;;;;30.05;19.15;;;10.30;99.90;;;10.49;91.80;102193.19;5115678;28;20019;-77
2022/11/30 01:41:28;;;;;;;21.83;18.75;;;10.30;99.90;;;9.59;91.49;102060.25;5121377;28;20040;-77
2022/11/30 01:43:58;;;;;;;24.02;19.33;;;10.30;99.90;;;10.48;91.63;102183.47;5103323;28;20054;-76
2022/11/30 01:46:34;;;;;;;22.27;18.42;;;10.30;99.90;;;10.57;91.83;102194.22;5119918;28;20039;-76
2022/11/30 01:49:16;;;;;;;19.40;17.02;;;10.30;99.90;;;10.57;91.54;102194.22;5097127;28;20465;-76
2022/11/30 01:51:56;;;;;;;21.20;18.55;;;10.30;99.90;;;10.65;91.69;102194.34;5114471;28;20040;-76
2022/11/30 01:54:30;;;;;;;23.38;18.08;;;10.40;99.90;;;10.63;91.69;102178.44;5097246;28;20051;-76
2022/11/30 01:57:05;;;;;;;23.60;18.20;;;10.40;99.90;;;10.70;91.42;102192.66;5115561;28;20040;-76
2022/11/30 01:59:33;;;;;;;20.98;18.40;;;10.40;99.90;;;10.68;91.48;102202.34;5096785;28;20476;-76
2022/11/30 02:02:01;;;;;;;19.58;16.48;;;10.40;99.90;;;10.56;91.60;102195.09;5114107;28;20039;-66
2022/11/30 02:04:33;;;;;;;19.98;17.67;;;10.40;99.90;;;10.56;91.34;102196.84;5114401;28;20073;-66
2022/11/30 02:07:03;;;;;;;24.25;18.90;;;10.40;99.90;;;10.52;91.29;102201.19;5114158;28;20043;-66
2022/11/30 02:09:36;;;;;;;;;;;10.30;99.90;;;10.53;90.87;102186.22;5114774;28;20047;-65
2022/11/30 02:12:08;;;;;;;22.25;17.20;;;10.40;99.90;;;10.44;90.98;102180.75;5113498;28;20277;-64
2022/11/30 02:14:42;;;;;;;19.83;17.60;;;10.30;99.90;;;10.52;91.18;102195.00;5114608;28;20130;-64
2022/11/30 02:17:21;;;;;;;19.42;16.23;;;10.30;99.90;;;10.54;90.95;102193.28;5114170;28;20489;-64
2022/11/30 02:20:35;;;;;;;21.80;17.30;;;10.30;99.90;;;10.48;90.95;102190.53;5114141;28;20142;-63
2022/11/30 02:23:42;;;;;;;23.52;18.85;;;10.30;99.90;;;10.43;90.90;102198.38;5078026;28;20062;-64
2022/11/30 02:26:34;;;;;;;29.92;17.63;;;10.20;99.90;;;10.45;91.37;102198.41;5114130;28;20400;-65
2022/11/30 02:29:14;;;;;;;23.58;18.55;;;10.20;99.90;;;10.48;91.18;102199.34;5114057;28;20039;-64
2022/11/30 02:31:55;;;;;;;19.27;16.77;;;10.20;99.90;;;10.43;91.12;102193.06;5114287;28;20039;-64
2022/11/30 02:34:27;;;;;;;22.23;16.95;;;10.20;99.90;;;10.43;90.82;102198.38;5114028;28;20039;-63
2022/11/30 02:36:57;;;;;;;20.25;16.83;;;10.20;99.90;;;10.39;90.62;102204.50;5113680;28;20043;-64
2022/11/30 02:39:25;;;;;;;21.92;18.48;;;10.20;99.90;;;10.33;91.01;102192.91;5113864;28;20515;-64
2022/11/30 02:41:54;;;;;;;20.58;18.38;;;10.10;99.90;;;10.47;90.87;102205.50;5113619;28;20035;-64
2022/11/30 02:44:25;;;;;;;24.55;19.25;;;10.20;99.90;;;10.44;91.02;102194.88;5113623;28;20527;-64
2022/11/30 02:47:12;;;;;;;20.02;16.80;;;10.20;99.90;;;10.53;90.96;102192.38;5113587;28;20131;-64
2022/11/30 02:49:49;;;;;;;24.85;16.27;;;10.20;99.90;;;10.66;90.85;102193.47;5113526;28;20131;-63
2022/11/30 02:52:19;;;;;;;22.02;15.88;;;10.30;99.90;;;10.74;90.67;102199.78;5113749;28;20515;-64
2022/11/30 02:54:48;;;;;;;22.60;16.05;;;10.40;99.90;;;10.75;90.10;102194.53;5113507;28;20050;-66
2022/11/30 02:57:16;;;;;;;20.25;17.77;;;10.50;99.90;;;10.47;89.92;102199.34;5113389;28;20047;-66
2022/11/30 02:59:46;;;;;;;21.00;18.02;;;10.30;99.90;;;10.40;89.86;102192.13;5113464;28;20044;-66
2022/11/30 03:02:14;;;;;;;20.95;18.67;;;10.20;99.90;;;10.27;90.25;102195.44;5113383;28;20081;-66
2022/11/30 03:04:43;;;;;;;19.27;17.17;;;10.00;99.90;;;10.28;90.37;102195.44;5113345;28;20503;-66
2022/11/30 03:07:11;;;;;;;20.90;18.33;;;10.00;99.90;;;10.19;90.24;102197.94;5113646;28;20036;-66
2022/11/30 03:09:39;;;;;;;23.58;20.20;;;10.00;99.90;;;9.99;90.54;102196.63;5113533;28;20508;-66
2022/11/30 03:12:08;;;;;;;20.42;18.25;;;9.80;99.90;;;9.77;91.12;102205.00;5113215;28;20042;-66
2022/11/30 03:14:36;;;;;;;23.42;19.65;;;9.50;99.90;;;9.79;92.00;102200.66;5113301;28;20055;-66
2022/11/30 03:17:06;;;;;;;20.98;18.48;;;9.50;99.90;;;9.86;92.18;102206.09;5113389;28;20495;-65
2022/11/30 03:19:34;;;;;;;22.52;17.73;;;9.60;99.90;;;9.92;92.08;102203.56;5113260;28;20039;-67
2022/11/30 03:22:03;;;;;;;22.80;18.42;;;9.60;99.90;;;10.03;92.41;102203.75;5113441;28;20455;-66
2022/11/30 03:24:31;;;;;;;21.95;17.55;;;9.70;99.90;;;9.91;92.16;102206.19;5117141;28;20035;-66
2022/11/30 03:26:59;;;;;;;23.85;18.45;;;9.70;99.90;;;9.14;93.71;102215.06;5099242;28;20043;-66
2022/11/30 03:29:27;;;;;;;21.70;16.85;;;9.00;99.90;;;9.45;95.04;102216.63;5117223;28;20054;-66
2022/11/30 03:31:56;;;;;;;21.88;17.45;;;9.10;99.90;;;9.45;95.09;102221.91;5117611;28;20040;-66
2022/11/30 03:34:26;;;;;;;22.90;15.88;;;9.10;99.90;;;9.59;94.55;102224.00;5117123;28;20054;-66
2022/11/30 03:36:55;;;;;;;18.73;14.02;;;9.30;99.90;;;9.68;93.87;102255.00;5117426;28;20047;-65
2022/11/30 03:39:24;;;;;;;19.35;14.70;;;9.40;99.90;;;9.84;93.40;102222.75;5117009;28;20052;-66
2022/11/30 03:41:52;;;;;;;18.58;14.55;;;9.60;99.90;;;9.90;93.20;102218.50;5098912;28;20048;-66
2022/11/30 03:44:20;;;;;;;19.00;15.05;;;9.60;99.90;;;9.99;92.76;102223.97;5099175;28;20051;-66
2022/11/30 03:46:49;;;;;;;20.13;15.30;;;9.70;99.90;;;10.01;92.35;102226.63;5098837;28;20044;-66
2022/11/30 03:49:17;;;;;;;21.35;15.25;;;9.80;99.90;;;10.02;91.76;102218.75;5116795;28;20051;-66
2022/11/30 03:51:47;;;;;;;17.30;14.45;;;9.80;99.90;;;9.93;91.79;102234.41;5116976;28;20044;-66
2022/11/30 03:54:15;;;;;;;19.80;15.50;;;9.70;99.90;;;9.91;91.54;102224.69;5116734;28;20043;-66
2022/11/30 03:56:43;;;;;;;19.20;14.48;;;9.70;99.90;;;9.99;91.55;102223.06;5116645;28;20500;-67
2022/11/30 03:59:11;;;;;;;18.77;14.75;;;9.80;99.90;;;10.08;91.45;102230.28;5116600;28;20055;-66
2022/11/30 04:01:40;;;;;;;19.13;14.85;;;9.80;99.90;;;10.05;91.12;102233.75;5116850;28;20044;-66
2022/11/30 04:04:09;;;;;;;18.05;15.82;;;9.80;99.90;;;10.03;90.89;102233.72;5116508;28;20046;-66
2022/11/30 04:06:37;;;;;;;18.40;14.57;;;9.80;99.90;;;10.04;91.10;102235.50;5116488;28;20048;-66
2022/11/30 04:09:07;;;;;;;19.02;14.57;;;9.80;99.90;;;10.04;91.00;102227.56;5116439;28;20043;-66
2022/11/30 04:11:35;;;;;;;17.73;14.37;;;9.80;99.90;;;10.05;91.01;102233.75;5116419;28;20039;-66
2022/11/30 04:14:04;;;;;;;16.02;13.82;;;9.80;99.90;;;10.08;90.76;102235.59;5116216;28;20039;-66
2022/11/30 04:16:32;;;;;;;20.60;14.07;;;9.80;99.90;;;10.25;90.67;102234.19;5116278;28;20135;-66
2022/11/30 04:19:01;;;;;;;19.23;14.68;;;9.90;99.90;;;10.29;90.59;102231.63;5116519;28;20047;-66
2022/11/30 04:21:29;;;;;;;19.95;14.30;;;10.00;99.90;;;10.40;90.21;102232.72;5116736;28;20039;-66
2022/11/30 04:23:57;;;;;;;19.10;13.15;;;10.10;99.90;;;10.43;89.67;102239.81;5116711;28;20039;-66
2022/11/30 04:26:27;;;;;;;17.42;13.73;;;10.20;99.90;;;10.44;89.48;102236.28;5116084;28;20401;-66
2022/11/30 04:28:55;;;;;;;16.45;13.82;;;10.20;99.90;;;10.30;88.78;102225.47;5116108;28;20101;-66
2022/11/30 04:31:24;;;;;;;16.33;13.10;;;10.20;99.90;;;9.98;87.64;102243.34;5116324;28;20044;-66
2022/11/30 04:33:53;;;;;;;16.05;13.02;;;9.90;99.90;;;9.80;88.70;102247.34;5115492;28;20445;-66
2022/11/30 04:36:22;;;;;;;15.77;12.57;;;9.60;99.90;;;9.75;89.17;102238.44;5115653;28;20040;-66
2022/11/30 04:38:50;;;;;;;19.90;13.63;;;9.60;99.90;;;9.65;90.35;102241.75;5115854;28;20043;-66
2022/11/30 04:41:18;;;;;;;19.60;14.20;;;9.40;99.90;;;9.87;90.19;102242.22;5116081;28;20067;-66
2022/11/30 04:43:48;;;;;;;20.33;14.43;;;9.50;99.90;;;9.98;90.36;102247.72;5115812;28;20093;-66
2022/11/30 04:46:16;;;;;;;19.38;14.32;;;9.70;99.90;;;9.98;89.80;102250.38;5115704;28;20042;-66
2022/11/30 04:48:44;;;;;;;21.45;14.45;;;9.70;99.90;;;10.11;89.77;102236.56;5115955;28;20123;-66
2022/11/30 04:51:13;;;;;;;26.45;14.77;;;9.80;99.90;;;10.12;89.57;102241.00;5115943;28;20048;-66
2022/11/30 04:53:41;;;;;;;18.92;14.60;;;9.80;99.90;;;10.06;89.36;102239.94;5115480;28;20051;-66
2022/11/30 04:56:11;;;;;;;23.05;15.30;;;9.80;99.90;;;10.03;89.74;102233.72;5115534;28;20044;-66
2022/11/30 04:58:40;;;;;;;20.15;14.90;;;9.80;99.90;;;10.08;89.46;102233.84;5115518;28;20047;-66
2022/11/30 05:01:09;;;;;;;19.55;14.45;;;9.80;99.90;;;10.19;89.33;102234.06;5115416;28;20061;-66
2022/11/30 05:03:37;;;;;;;21.48;14.85;;;9.90;99.90;;;10.22;88.84;102242.94;5115436;28;20069;-66
2022/11/30 05:06:06;;;;;;;13.70;12.30;;;9.90;99.90;;;9.99;88.27;102245.09;5115352;28;20039;-66
2022/11/30 05:08:34;;;;;;;14.05;11.45;;;9.80;99.90;;;9.83;87.92;102252.72;5115215;28;20465;-66
2022/11/30 05:11:03;;;;;;;14.43;12.60;;;9.70;99.90;;;9.75;87.72;102255.19;5114629;28;20039;-66
2022/11/30 05:13:31;;;;;;;12.77;11.05;;;9.60;99.90;;;9.68;87.47;102255.91;5114783;28;20464;-66
2022/11/30 05:16:00;;;;;;;15.88;12.60;;;9.40;99.90;;;9.52;87.19;102256.44;5115211;28;20084;-65
2022/11/30 05:18:30;;;;;;;12.05;10.88;;;9.20;99.90;;;9.32;87.45;102255.09;5115683;28;20044;-66
2022/11/30 05:20:58;;;;;;;13.07;9.18;;;9.10;99.90;;;9.36;87.55;102256.06;5115088;28;20096;-66
2022/11/30 05:23:27;;;;;;;11.70;10.48;;;9.10;99.90;;;9.57;87.97;102257.44;5115003;28;20042;-66
2022/11/30 05:25:55;;;;;;;11.00;9.75;;;9.20;99.90;;;9.64;87.56;102259.34;5096883;28;20053;-66
2022/11/30 05:28:23;;;;;;;19.95;13.48;;;9.30;99.90;;;9.73;87.75;102256.91;5114940;28;20038;-66
2022/11/30 05:30:52;;;;;;;13.98;11.13;;;9.40;99.90;;;8.79;88.31;102121.00;5114832;28;20051;-66
2022/11/30 05:33:20;;;;;;;13.40;10.90;;;9.30;99.90;;;9.19;88.95;102258.31;5096663;28;20039;-66
2022/11/30 05:35:49;;;;;;;17.52;14.13;;;8.90;99.90;;;8.93;89.25;102252.41;5114759;28;20106;-66
2022/11/30 05:38:18;;;;;;;19.77;14.02;;;8.70;99.90;;;9.00;90.60;102256.97;5115337;28;20043;-67
2022/11/30 05:40:46;;;;;;;21.20;15.23;;;8.60;99.90;;;8.54;91.68;102161.75;5114970;28;20036;-66
2022/11/30 05:43:14;;;;;;;22.88;15.93;;;8.70;99.90;;;9.20;92.59;102259.19;5114827;28;20047;-66
2022/11/30 05:45:43;;;;;;;25.02;15.57;;;8.80;99.90;;;9.32;92.63;102257.75;5114515;28;20043;-66
2022/11/30 05:48:11;;;;;;;22.70;16.45;;;9.00;99.90;;;9.31;92.55;102263.84;5114522;28;20497;-66
2022/11/30 05:50:39;;;;;;;23.58;17.48;;;9.00;99.90;;;9.13;93.02;102260.81;5114415;28;20032;-66
2022/11/30 05:53:09;;;;;;;22.50;17.33;;;8.90;99.90;;;8.97;93.84;102259.56;5114364;28;20386;-66
2022/11/30 05:55:38;;;;;;;28.33;18.50;;;8.70;99.90;;;9.00;95.20;102256.09;5114590;28;20040;-66
2022/11/30 05:58:06;;;;;;;21.40;17.02;;;8.70;99.90;;;9.20;95.23;102267.09;5114552;28;20071;-66
2022/11/30 06:00:34;;;;;;;32.25;18.77;;;8.80;99.90;;;9.29;94.92;102268.22;5114255;28;20097;-66
2022/11/30 06:03:02;;;;;;;24.20;18.25;;;9.00;99.90;;;9.39;94.60;102261.44;5114856;28;20062;-66
2022/11/30 06:05:34;;;;;;;23.00;18.30;;;9.10;99.90;;;9.42;94.24;102270.31;5114138;28;20044;-66
2022/11/30 06:08:02;;;;;;;23.23;17.73;;;9.20;99.90;;;9.44;94.48;102270.34;5114752;28;20044;-66
2022/11/30 06:10:32;;;;;;;22.10;17.48;;;9.20;99.90;;;9.42;93.85;102274.69;5114092;28;20085;-66
2022/11/30 06:13:07;;;;;;;21.42;16.88;;;9.20;99.90;;;9.43;94.31;102316.97;5113982;28;20051;-66
2022/11/30 06:15:36;;;;;;;21.13;17.23;;;9.20;99.90;;;9.40;94.04;102274.66;5114089;28;20039;-66
2022/11/30 06:18:06;;;;;;;24.73;17.75;;;9.20;99.90;;;9.39;93.99;102272.84;5114331;28;20055;-65
2022/11/30 06:20:35;;;;;;;21.65;17.08;;;9.20;99.90;;;9.47;93.98;102278.31;5113955;28;20051;-66
2022/11/30 06:23:03;;;;;;;22.60;17.42;;;9.20;99.90;;;9.49;93.84;102276.59;5113885;28;20076;-66
2022/11/30 06:25:33;;;;;;;19.45;15.38;;;9.20;99.90;;;9.36;93.33;102269.25;5114112;28;20043;-66
2022/11/30 06:28:01;;;;;;;20.33;17.27;;;9.20;99.90;;;9.33;92.97;102279.75;5113842;28;20043;-65
2022/11/30 06:30:30;;;;;;;23.65;18.88;;;9.20;99.90;;;9.34;93.45;102276.25;5114047;28;20362;-66
2022/11/30 06:32:58;;;;;;;25.42;18.27;;;9.20;99.90;;;9.35;93.49;102283.34;5113779;28;20054;-66
2022/11/30 06:35:26;;;;;;;22.92;17.35;;;9.10;99.90;;;9.34;93.54;102290.34;5113972;28;20143;-66
2022/11/30 06:37:54;;;;;;;24.60;18.17;;;9.20;99.90;;;9.16;94.52;102282.00;5113990;28;20046;-66
2022/11/30 06:40:23;;;;;;;23.88;18.95;;;9.00;99.90;;;9.31;94.90;102281.47;5113968;28;20481;-66
2022/11/30 06:42:53;;;;;;;24.58;19.15;;;9.00;99.90;;;9.41;94.36;102283.44;5113632;28;20042;-66
2022/11/30 06:45:21;;;;;;;23.73;18.83;;;9.10;99.90;;;9.52;93.86;102284.59;5113940;28;20066;-66
2022/11/30 06:47:50;;;;;;;26.50;20.38;;;9.30;99.90;;;9.53;93.57;102283.72;5114028;28;20056;-66
2022/11/30 06:50:18;;;;;;;25.08;20.80;;;9.30;99.90;;;9.55;93.69;102277.63;5113399;28;20044;-66
2022/11/30 06:52:46;;;;;;;33.35;20.98;;;9.30;99.90;;;9.57;93.33;102286.50;5113650;28;20036;-66
2022/11/30 06:55:15;;;;;;;25.38;20.23;;;9.30;99.90;;;9.64;93.21;102287.53;5113657;28;20043;-66
2022/11/30 06:57:43;;;;;;;27.23;21.35;;;9.40;99.90;;;9.70;93.04;102290.28;5115889;28;20048;-66
2022/11/30 07:00:15;;;;;;;24.40;19.70;;;9.40;99.90;;;9.80;92.95;102294.91;5120146;28;20080;-66
2022/11/30 07:02:43;;;;;;;22.55;17.70;;;9.50;99.90;;;9.70;92.54;102296.47;5120152;28;20035;-66
2022/11/30 07:05:11;;;;;;;24.45;19.00;;;9.50;99.90;;;9.70;92.30;102300.84;5120194;28;20043;-66
2022/11/30 07:07:40;;;;;;;23.10;18.45;;;9.50;99.90;;;9.69;91.80;102302.63;5120124;28;20048;-67
2022/11/30 07:10:09;;;;;;;26.95;19.42;;;9.50;99.90;;;9.70;91.63;102309.66;5120124;28;20054;-66
2022/11/30 07:12:44;;;;;;;28.20;18.98;;;9.50;99.90;;;9.76;91.72;102312.44;5120029;28;20036;-66
2022/11/30 07:15:13;;;;;;;24.98;19.63;;;9.50;99.90;;;9.83;91.76;102317.00;5119872;28;20048;-66
2022/11/30 07:17:42;;;;;;;26.48;18.80;;;9.60;99.90;;;9.89;91.14;102314.50;5119844;28;20054;-67
2022/11/30 07:20:10;;;;;;;26.73;19.27;;;9.70;99.90;;;9.82;91.21;102309.03;5120040;28;20055;-66
2022/11/30 07:22:38;;;;;;;25.95;19.80;;;9.60;99.90;;;9.80;91.48;102309.03;5120304;28;20040;-67
2022/11/30 07:27:55;;;;;;;19.42;15.43;;;9.60;99.90;;;9.73;90.93;102333.53;5102181;28;20138;-74
2022/11/30 07:30:24;;;;;;;22.58;18.02;;;9.60;99.90;;;9.75;91.15;102337.09;5120492;28;20051;-74
2022/11/30 07:32:53;;;;;;;22.97;15.60;;;9.50;99.90;;;9.73;91.05;102336.19;5120426;28;20055;-74
2022/11/30 07:35:21;;;;;;;22.02;17.48;;;9.50;99.90;;;9.75;90.99;102336.19;5119801;28;20131;-74
2022/11/30 07:37:50;;;;;;;24.27;17.95;;;9.50;99.90;;;9.81;90.66;102344.28;5120125;28;20054;-71
2022/11/30 07:40:18;;;;;;;23.05;17.15;;;9.50;99.90;;;9.71;90.54;102337.88;5119774;28;20096;-70
2022/11/30 07:42:46;;;;;;;24.33;17.83;;;9.40;99.90;;;9.50;90.83;102316.28;5101400;28;20501;-68
2022/11/30 07:45:15;;;;;;;20.40;16.90;;;9.40;99.90;;;9.67;91.26;102354.53;5120434;28;20048;-67
2022/11/30 07:47:44;;;;;;;25.13;18.48;;;9.40;99.90;;;9.76;90.94;102348.53;5120278;28;20039;-68
2022/11/30 07:50:12;;;;;;;21.98;17.60;;;9.50;99.90;;;9.76;90.60;102354.72;5119820;28;20031;-69
2022/11/30 07:52:41;;;;;;;24.52;17.65;;;9.50;99.90;;;9.62;91.81;102348.22;5119793;28;20051;-68
2022/11/30 07:55:10;;;;;;;26.92;19.08;;;9.30;99.90;;;9.57;91.96;102355.16;5119982;28;20044;-68
2022/11/30 07:57:38;;;;;;;28.63;20.88;;;9.30;99.90;;;9.36;92.93;102346.75;5119996;28;20036;-68
2022/11/30 08:00:09;;;;;;;21.85;19.33;;;9.10;99.90;;;9.45;93.30;102354.88;5119975;28;20118;-68
2022/11/30 08:02:39;;;;;;;21.85;16.90;;;9.10;99.90;;;9.45;93.37;102352.22;5119756;28;20105;-68
2022/11/30 08:05:10;;;;;;;24.02;18.42;;;9.20;99.90;;;9.38;92.91;102349.41;5101665;28;20079;-69
2022/11/30 08:07:39;;;;;;;21.80;17.15;;;9.10;99.90;;;9.34;92.42;102353.72;5119730;28;20562;-69
2022/11/30 08:10:09;;;;;;;22.45;17.05;;;9.10;99.90;;;9.44;92.47;102362.75;5115973;28;20044;-68
2022/11/30 08:12:37;;;;;;;24.48;18.65;;;9.20;99.90;;;9.33;93.13;102365.13;5116509;28;20050;-69
2022/11/30 08:15:07;;;;;;;21.70;17.25;;;9.20;99.90;;;9.19;93.94;102363.00;5116693;28;20039;-68
2022/11/30 08:17:53;;;;;;;22.50;17.80;;;9.00;99.90;;;9.45;94.66;102369.81;5116583;28;20047;-65
2022/11/30 08:20:23;;;;;;;23.52;18.55;;;9.20;99.90;;;9.56;94.50;102378.91;5116796;28;20047;-66
2022/11/30 08:22:51;;;;;;;25.08;18.25;;;9.30;99.90;;;9.62;93.83;102369.34;5116189;28;20047;-65
2022/11/30 08:25:19;;;;;;;25.30;19.10;;;9.40;99.90;;;9.70;94.05;102378.38;5116086;28;20071;-66
2022/11/30 08:27:48;;;;;;;24.50;19.75;;;9.50;99.90;;;9.80;93.89;102380.38;5116016;28;20049;-65
2022/11/30 08:30:17;;;;;;;26.95;20.05;;;9.60;99.90;;;9.83;93.89;102388.34;5115906;28;20481;-65
2022/11/30 08:32:45;;;;;;;27.20;20.70;;;9.70;99.90;;;9.85;93.53;102388.41;5115921;28;20127;-65
2022/11/30 08:35:13;;;;;;;25.65;20.02;;;9.70;99.90;;;9.90;93.46;102386.75;5115846;28;20505;-65
2022/11/30 08:37:43;;;;;;;29.05;22.05;;;9.70;99.90;;;9.61;93.27;102354.38;5115940;28;20131;-65
2022/11/30 08:40:12;;;;;;;31.63;23.45;;;9.70;99.90;;;9.91;93.21;102396.47;5115699;28;20039;-65
2022/11/30 08:42:40;;;;;;;26.70;20.65;;;9.70;99.90;;;9.73;92.65;102396.94;5116054;28;20036;-65
2022/11/30 08:45:10;;;;;;;24.73;17.77;;;9.50;99.90;;;9.64;93.21;102388.78;5115739;28;20042;-65
2022/11/30 08:47:38;;;;;;;23.60;18.13;;;9.40;99.90;;;9.48;93.69;102397.22;5115705;28;20040;-65
2022/11/30 08:50:08;;;;;;;25.90;18.15;;;9.20;99.90;;;9.47;93.80;102394.50;5097908;28;20050;-65
2022/11/30 08:52:36;;;;;;;22.83;17.58;;;9.10;99.90;;;9.64;94.51;102396.72;5097591;28;20070;-65
2022/11/30 08:55:08;;;;;;;26.83;18.42;;;9.30;99.90;;;9.63;94.03;102392.31;5115699;28;20031;-65
2022/11/30 08:57:36;;;;;;;24.08;18.15;;;9.30;99.90;;;9.51;94.67;102399.91;5115599;28;20134;-64
2022/11/30 09:00:07;;;;;;;25.30;17.70;;;9.20;99.90;;;9.65;94.49;102395.88;5115456;28;20043;-65
2022/11/30 09:02:37;;;;;;;24.70;19.25;;;9.40;99.90;;;9.50;94.34;102390.22;5115470;28;20508;-65
2022/11/30 09:05:06;;;;;;;31.05;21.15;;;9.30;99.90;;;9.66;94.40;102397.63;5115644;28;20040;-65
2022/11/30 09:07:34;;;;;;;24.52;20.50;;;9.30;99.90;;;9.75;94.82;102403.16;5115562;28;20469;-65
2022/11/30 09:10:02;;;;;;;21.33;18.35;;;9.50;99.90;;;9.77;94.32;102406.72;5116080;28;20153;-64
2022/11/30 09:12:35;;;;;;;21.52;18.02;;;9.50;99.90;;;9.76;94.34;102386.44;5115259;28;20040;-65
2022/11/30 09:15:04;;;;;;;22.27;17.85;;;9.70;99.90;;;9.92;94.28;102407.09;5097059;28;20477;-65
2022/11/30 09:17:32;;;;;;;22.80;17.92;;;9.70;99.90;;;10.03;94.08;102405.56;5115008;28;20048;-66
2022/11/30 09:20:01;;;;;;;23.75;18.40;;;9.80;99.90;;;9.94;93.90;102386.88;5115191;28;20071;-66
2022/11/30 09:22:29;;;;;;;21.13;17.67;;;9.90;99.90;;;10.17;93.82;102415.59;5114792;28;20039;-67
2022/11/30 09:24:58;;;;;;;20.80;18.02;;;10.00;99.90;;;10.26;93.72;102415.81;5114928;28;20035;-66
2022/11/30 09:27:29;;;;;;;22.65;17.80;;;10.00;99.90;;;10.20;93.49;102413.03;5115152;28;20047;-66
2022/11/30 09:29:59;;;;;;;22.08;18.40;;;10.00;99.90;;;10.29;93.42;102423.78;5114914;28;20042;-66
2022/11/30 09:32:28;;;;;;;21.10;17.77;;;10.10;99.90;;;10.21;92.80;102409.50;5115530;28;20044;-66
2022/11/30 09:34:57;;;;;;;22.05;17.17;;;10.10;99.90;;;10.33;92.64;102426.53;5114904;28;20301;-66
2022/11/30 09:37:25;;;;;;;20.80;17.48;;;10.10;99.90;;;10.39;92.85;102424.03;5114734;28;20040;-66
2022/11/30 09:39:53;;;;;;;22.45;18.13;;;10.20;99.90;;;10.46;93.17;102430.31;5114659;28;20130;-66
2022/11/30 09:42:33;;;;;;;28.27;18.67;;;10.20;99.90;;;10.52;92.92;102426.06;5096825;28;20507;-67
2022/11/30 09:45:13;;;;;;;21.73;18.33;;;10.30;99.90;;;10.56;92.91;102422.63;5114654;28;20130;-68
2022/11/30 09:48:21;;;;;;;23.00;18.70;;;10.40;99.90;;;10.65;92.83;102430.75;5096574;28;20154;-66
2022/11/30 09:50:52;;;;;;;20.88;18.52;;;10.40;99.90;;;10.68;92.61;102444.03;5115083;28;20043;-68
2022/11/30 09:53:28;;;;;;;22.75;19.77;;;10.50;99.90;;;10.69;92.55;102442.28;5114436;28;20039;-67
2022/11/30 09:55:59;;;;;;;24.15;18.83;;;10.50;99.90;;;10.75;92.47;102437.09;5114650;28;20108;-66
2022/11/30 09:58:38;;;;;;;23.35;19.65;;;10.50;99.90;;;10.72;92.21;102430.00;5114872;28;20070;-68
2022/11/30 10:01:17;;;;;;;23.65;19.17;;;10.60;99.90;;;10.82;91.96;102439.91;5114620;28;20130;-67
2022/11/30 10:03:46;;;;;;;23.42;20.98;;;10.60;99.90;;;10.83;91.75;102439.06;5114478;28;20036;-66
2022/11/30 10:06:24;;;;;;;24.77;19.95;;;10.60;99.90;;;10.93;92.05;102434.84;5114210;28;20044;-66
2022/11/30 10:09:26;;;;;;;27.33;20.20;;;10.70;99.90;;;10.97;91.47;102443.72;5114772;28;20047;-65
2022/11/30 10:12:04;;;;;;;26.05;19.65;;;10.70;99.90;;;11.05;91.65;102442.13;5114096;28;20066;-66
2022/11/30 10:15:11;;;;;;;27.08;20.77;;;10.80;99.90;;;11.00;91.00;102441.13;5114524;28;20127;-66
2022/11/30 10:17:53;;;;;;;23.33;19.10;;;10.80;99.90;;;11.08;91.28;102437.75;5113920;28;20511;-66
2022/11/30 10:20:52;;;;;;;24.73;20.38;;;10.80;99.90;;;11.20;91.34;102438.00;5096040;28;20548;-65
2022/11/30 10:23:36;;;;;;;24.02;20.45;;;10.90;99.90;;;11.29;91.40;102424.00;5114272;28;20067;-66
2022/11/30 10:26:09;;;;;;;22.77;19.90;;;11.00;99.90;;;11.22;90.62;102435.38;5113916;28;20134;-67